sensor_id;sensor_type;location;lat;lon;timestamp;P1;durP1;ratioP1;P2;durP2;ratioP2
23384;SDS011;11865;45.394;10.978;2023-07-31T00:01:40;5.18;;;4.57;;
23384;SDS011;11865;45.394;10.978;2023-07-31T00:04:07;6.32;;;4.78;;
23384;SDS011;11865;45.394;10.978;2023-07-31T00:06:35;4.68;;;4.15;;
23384;SDS011;11865;45.394;10.978;2023-07-31T00:09:02;6.35;;;4.68;;
23384;SDS011;11865;45.394;10.978;2023-07-31T00:11:30;7.97;;;4.75;;
23384;SDS011;11865;45.394;10.978;2023-07-31T00:13:58;6.45;;;4.45;;
23384;SDS011;11865;45.394;10.978;2023-07-31T00:16:25;4.82;;;4.30;;
23384;SDS011;11865;45.394;10.978;2023-07-31T00:18:53;5.53;;;4.35;;
23384;SDS011;11865;45.394;10.978;2023-07-31T00:21:20;5.65;;;4.32;;
23384;SDS011;11865;45.394;10.978;2023-07-31T00:23:48;7.38;;;4.72;;
23384;SDS011;11865;45.394;10.978;2023-07-31T00:26:15;6.25;;;4.53;;
23384;SDS011;11865;45.394;10.978;2023-07-31T00:28:43;5.05;;;4.55;;
23384;SDS011;11865;45.394;10.978;2023-07-31T00:31:11;7.97;;;4.75;;
23384;SDS011;11865;45.394;10.978;2023-07-31T00:33:38;6.82;;;4.55;;
23384;SDS011;11865;45.394;10.978;2023-07-31T00:36:06;6.85;;;4.70;;
23384;SDS011;11865;45.394;10.978;2023-07-31T00:38:33;4.70;;;4.15;;
23384;SDS011;11865;45.394;10.978;2023-07-31T00:41:01;6.30;;;4.50;;
23384;SDS011;11865;45.394;10.978;2023-07-31T00:43:28;5.53;;;4.40;;
23384;SDS011;11865;45.394;10.978;2023-07-31T00:45:56;6.82;;;5.10;;
23384;SDS011;11865;45.394;10.978;2023-07-31T00:48:24;7.32;;;4.70;;
23384;SDS011;11865;45.394;10.978;2023-07-31T00:50:52;5.50;;;4.75;;
23384;SDS011;11865;45.394;10.978;2023-07-31T00:53:21;4.60;;;4.18;;
23384;SDS011;11865;45.394;10.978;2023-07-31T00:55:49;6.13;;;4.90;;
23384;SDS011;11865;45.394;10.978;2023-07-31T00:58:17;4.78;;;4.18;;
23384;SDS011;11865;45.394;10.978;2023-07-31T01:00:45;6.93;;;4.50;;
23384;SDS011;11865;45.394;10.978;2023-07-31T01:03:12;5.15;;;4.65;;
23384;SDS011;11865;45.394;10.978;2023-07-31T01:08:25;5.43;;;4.22;;
23384;SDS011;11865;45.394;10.978;2023-07-31T01:11:14;5.65;;;4.30;;
23384;SDS011;11865;45.394;10.978;2023-07-31T01:13:46;5.00;;;4.50;;
23384;SDS011;11865;45.394;10.978;2023-07-31T01:16:14;6.43;;;4.75;;
23384;SDS011;11865;45.394;10.978;2023-07-31T01:18:42;6.35;;;4.47;;
23384;SDS011;11865;45.394;10.978;2023-07-31T01:21:21;5.30;;;4.60;;
23384;SDS011;11865;45.394;10.978;2023-07-31T01:24:19;6.00;;;4.45;;
23384;SDS011;11865;45.394;10.978;2023-07-31T01:26:54;6.50;;;4.53;;
23384;SDS011;11865;45.394;10.978;2023-07-31T01:32:16;6.53;;;4.20;;
23384;SDS011;11865;45.394;10.978;2023-07-31T01:34:46;4.70;;;4.20;;
23384;SDS011;11865;45.394;10.978;2023-07-31T01:37:15;5.80;;;4.57;;
23384;SDS011;11865;45.394;10.978;2023-07-31T01:39:42;5.22;;;4.72;;
23384;SDS011;11865;45.394;10.978;2023-07-31T01:42:11;8.55;;;4.70;;
23384;SDS011;11865;45.394;10.978;2023-07-31T01:44:38;7.88;;;4.40;;
23384;SDS011;11865;45.394;10.978;2023-07-31T01:47:06;5.22;;;4.47;;
23384;SDS011;11865;45.394;10.978;2023-07-31T01:49:33;10.55;;;5.63;;
23384;SDS011;11865;45.394;10.978;2023-07-31T01:52:02;10.10;;;5.22;;
23384;SDS011;11865;45.394;10.978;2023-07-31T01:54:29;8.05;;;4.85;;
23384;SDS011;11865;45.394;10.978;2023-07-31T01:56:57;6.82;;;5.10;;
23384;SDS011;11865;45.394;10.978;2023-07-31T01:59:24;4.82;;;4.43;;
23384;SDS011;11865;45.394;10.978;2023-07-31T02:01:52;5.72;;;4.90;;
23384;SDS011;11865;45.394;10.978;2023-07-31T02:04:21;6.32;;;4.75;;
23384;SDS011;11865;45.394;10.978;2023-07-31T02:06:48;7.22;;;4.43;;
23384;SDS011;11865;45.394;10.978;2023-07-31T02:09:16;7.97;;;4.55;;
23384;SDS011;11865;45.394;10.978;2023-07-31T02:11:43;5.93;;;4.75;;
23384;SDS011;11865;45.394;10.978;2023-07-31T02:14:11;6.43;;;4.60;;
23384;SDS011;11865;45.394;10.978;2023-07-31T02:16:38;7.88;;;5.18;;
23384;SDS011;11865;45.394;10.978;2023-07-31T02:19:06;5.82;;;4.90;;
23384;SDS011;11865;45.394;10.978;2023-07-31T02:21:34;5.30;;;4.65;;
23384;SDS011;11865;45.394;10.978;2023-07-31T02:24:01;6.68;;;4.75;;
23384;SDS011;11865;45.394;10.978;2023-07-31T02:26:29;6.70;;;4.68;;
23384;SDS011;11865;45.394;10.978;2023-07-31T02:28:56;5.85;;;4.88;;
23384;SDS011;11865;45.394;10.978;2023-07-31T02:31:24;9.82;;;5.20;;
23384;SDS011;11865;45.394;10.978;2023-07-31T02:33:52;5.35;;;3.92;;
23384;SDS011;11865;45.394;10.978;2023-07-31T02:36:20;5.63;;;4.35;;
23384;SDS011;11865;45.394;10.978;2023-07-31T02:38:48;5.03;;;4.55;;
23384;SDS011;11865;45.394;10.978;2023-07-31T02:41:15;7.78;;;4.93;;
23384;SDS011;11865;45.394;10.978;2023-07-31T02:43:43;5.28;;;4.70;;
23384;SDS011;11865;45.394;10.978;2023-07-31T02:46:10;5.00;;;4.60;;
23384;SDS011;11865;45.394;10.978;2023-07-31T02:48:38;6.50;;;4.80;;
23384;SDS011;11865;45.394;10.978;2023-07-31T02:51:05;6.45;;;4.88;;
23384;SDS011;11865;45.394;10.978;2023-07-31T02:53:33;6.10;;;4.97;;
23384;SDS011;11865;45.394;10.978;2023-07-31T02:56:01;5.50;;;4.97;;
23384;SDS011;11865;45.394;10.978;2023-07-31T02:58:28;6.50;;;5.10;;
23384;SDS011;11865;45.394;10.978;2023-07-31T03:00:57;5.80;;;4.75;;
23384;SDS011;11865;45.394;10.978;2023-07-31T03:03:26;5.93;;;5.22;;
23384;SDS011;11865;45.394;10.978;2023-07-31T03:05:53;7.38;;;5.28;;
23384;SDS011;11865;45.394;10.978;2023-07-31T03:08:21;7.50;;;5.40;;
23384;SDS011;11865;45.394;10.978;2023-07-31T03:10:49;7.03;;;5.07;;
23384;SDS011;11865;45.394;10.978;2023-07-31T03:13:16;5.78;;;5.05;;
23384;SDS011;11865;45.394;10.978;2023-07-31T03:15:44;7.05;;;4.93;;
23384;SDS011;11865;45.394;10.978;2023-07-31T03:18:11;8.07;;;5.55;;
23384;SDS011;11865;45.394;10.978;2023-07-31T03:20:43;7.13;;;5.22;;
23384;SDS011;11865;45.394;10.978;2023-07-31T03:23:11;8.90;;;6.40;;
23384;SDS011;11865;45.394;10.978;2023-07-31T03:25:39;7.30;;;4.95;;
23384;SDS011;11865;45.394;10.978;2023-07-31T03:28:08;7.47;;;5.68;;
23384;SDS011;11865;45.394;10.978;2023-07-31T03:30:36;8.57;;;5.82;;
23384;SDS011;11865;45.394;10.978;2023-07-31T03:33:05;7.43;;;5.28;;
23384;SDS011;11865;45.394;10.978;2023-07-31T03:35:32;8.32;;;5.72;;
23384;SDS011;11865;45.394;10.978;2023-07-31T03:38:00;5.63;;;4.97;;
23384;SDS011;11865;45.394;10.978;2023-07-31T03:40:27;7.05;;;5.60;;
23384;SDS011;11865;45.394;10.978;2023-07-31T03:42:55;8.65;;;5.72;;
23384;SDS011;11865;45.394;10.978;2023-07-31T03:45:22;8.93;;;5.47;;
23384;SDS011;11865;45.394;10.978;2023-07-31T03:47:50;8.15;;;5.70;;
23384;SDS011;11865;45.394;10.978;2023-07-31T03:50:17;9.50;;;5.95;;
23384;SDS011;11865;45.394;10.978;2023-07-31T03:52:45;9.00;;;6.18;;
23384;SDS011;11865;45.394;10.978;2023-07-31T03:55:13;7.93;;;6.43;;
23384;SDS011;11865;45.394;10.978;2023-07-31T03:57:40;7.20;;;6.50;;
23384;SDS011;11865;45.394;10.978;2023-07-31T04:00:08;8.50;;;6.40;;
23384;SDS011;11865;45.394;10.978;2023-07-31T04:02:40;8.95;;;7.07;;
23384;SDS011;11865;45.394;10.978;2023-07-31T04:05:08;10.13;;;7.50;;
23384;SDS011;11865;45.394;10.978;2023-07-31T04:07:36;8.88;;;6.45;;
23384;SDS011;11865;45.394;10.978;2023-07-31T04:10:04;8.38;;;7.00;;
23384;SDS011;11865;45.394;10.978;2023-07-31T04:12:32;8.40;;;6.80;;
23384;SDS011;11865;45.394;10.978;2023-07-31T04:14:59;7.30;;;6.53;;
23384;SDS011;11865;45.394;10.978;2023-07-31T04:17:27;9.73;;;7.40;;
23384;SDS011;11865;45.394;10.978;2023-07-31T04:19:54;12.75;;;8.02;;
23384;SDS011;11865;45.394;10.978;2023-07-31T04:22:22;13.93;;;8.93;;
23384;SDS011;11865;45.394;10.978;2023-07-31T04:24:49;11.15;;;6.72;;
23384;SDS011;11865;45.394;10.978;2023-07-31T04:27:17;9.93;;;7.03;;
23384;SDS011;11865;45.394;10.978;2023-07-31T04:29:45;7.70;;;6.90;;
23384;SDS011;11865;45.394;10.978;2023-07-31T04:32:13;10.13;;;6.75;;
23384;SDS011;11865;45.394;10.978;2023-07-31T04:34:43;10.07;;;6.90;;
23384;SDS011;11865;45.394;10.978;2023-07-31T04:37:11;8.88;;;7.30;;
23384;SDS011;11865;45.394;10.978;2023-07-31T04:39:39;13.00;;;8.10;;
23384;SDS011;11865;45.394;10.978;2023-07-31T04:42:06;11.13;;;6.63;;
23384;SDS011;11865;45.394;10.978;2023-07-31T04:44:34;7.82;;;6.40;;
23384;SDS011;11865;45.394;10.978;2023-07-31T04:47:02;10.35;;;6.43;;
23384;SDS011;11865;45.394;10.978;2023-07-31T04:49:30;11.48;;;6.90;;
23384;SDS011;11865;45.394;10.978;2023-07-31T04:51:58;14.75;;;7.03;;
23384;SDS011;11865;45.394;10.978;2023-07-31T04:54:26;11.48;;;6.90;;
23384;SDS011;11865;45.394;10.978;2023-07-31T04:56:53;11.15;;;6.55;;
23384;SDS011;11865;45.394;10.978;2023-07-31T04:59:21;12.10;;;7.05;;
23384;SDS011;11865;45.394;10.978;2023-07-31T05:01:49;7.82;;;6.10;;
23384;SDS011;11865;45.394;10.978;2023-07-31T05:04:17;9.18;;;6.00;;
23384;SDS011;11865;45.394;10.978;2023-07-31T05:06:44;11.20;;;6.40;;
23384;SDS011;11865;45.394;10.978;2023-07-31T05:09:12;8.13;;;5.70;;
23384;SDS011;11865;45.394;10.978;2023-07-31T05:11:40;8.43;;;5.90;;
23384;SDS011;11865;45.394;10.978;2023-07-31T05:14:09;8.98;;;6.18;;
23384;SDS011;11865;45.394;10.978;2023-07-31T05:16:37;7.93;;;5.93;;
23384;SDS011;11865;45.394;10.978;2023-07-31T05:19:05;8.80;;;5.68;;
23384;SDS011;11865;45.394;10.978;2023-07-31T05:21:32;8.98;;;6.63;;
23384;SDS011;11865;45.394;10.978;2023-07-31T05:24:00;8.13;;;5.90;;
23384;SDS011;11865;45.394;10.978;2023-07-31T05:26:27;7.38;;;5.63;;
23384;SDS011;11865;45.394;10.978;2023-07-31T05:28:55;8.75;;;5.90;;
23384;SDS011;11865;45.394;10.978;2023-07-31T05:31:23;9.38;;;6.20;;
23384;SDS011;11865;45.394;10.978;2023-07-31T05:33:51;11.68;;;6.53;;
23384;SDS011;11865;45.394;10.978;2023-07-31T05:36:18;12.65;;;6.45;;
23384;SDS011;11865;45.394;10.978;2023-07-31T05:38:46;10.20;;;6.65;;
23384;SDS011;11865;45.394;10.978;2023-07-31T05:41:13;8.02;;;6.88;;
23384;SDS011;11865;45.394;10.978;2023-07-31T05:43:41;7.32;;;6.05;;
23384;SDS011;11865;45.394;10.978;2023-07-31T05:46:09;10.50;;;6.85;;
23384;SDS011;11865;45.394;10.978;2023-07-31T05:48:38;11.30;;;6.85;;
23384;SDS011;11865;45.394;10.978;2023-07-31T05:51:06;15.07;;;8.18;;
23384;SDS011;11865;45.394;10.978;2023-07-31T05:53:34;10.40;;;7.15;;
23384;SDS011;11865;45.394;10.978;2023-07-31T05:56:03;9.57;;;6.82;;
23384;SDS011;11865;45.394;10.978;2023-07-31T05:58:30;28.40;;;18.10;;
23384;SDS011;11865;45.394;10.978;2023-07-31T06:00:58;16.48;;;7.78;;
23384;SDS011;11865;45.394;10.978;2023-07-31T06:03:25;9.38;;;6.53;;
23384;SDS011;11865;45.394;10.978;2023-07-31T06:05:53;12.38;;;6.82;;
23384;SDS011;11865;45.394;10.978;2023-07-31T06:08:20;14.10;;;6.93;;
23384;SDS011;11865;45.394;10.978;2023-07-31T06:10:48;11.45;;;6.30;;
23384;SDS011;11865;45.394;10.978;2023-07-31T06:13:15;13.13;;;6.03;;
23384;SDS011;11865;45.394;10.978;2023-07-31T06:15:43;12.73;;;6.03;;
23384;SDS011;11865;45.394;10.978;2023-07-31T06:18:10;8.93;;;5.00;;
23384;SDS011;11865;45.394;10.978;2023-07-31T06:20:38;10.88;;;4.88;;
23384;SDS011;11865;45.394;10.978;2023-07-31T06:23:07;7.75;;;4.85;;
23384;SDS011;11865;45.394;10.978;2023-07-31T06:25:35;7.80;;;4.68;;
23384;SDS011;11865;45.394;10.978;2023-07-31T06:28:02;10.20;;;6.00;;
23384;SDS011;11865;45.394;10.978;2023-07-31T06:30:30;5.90;;;4.28;;
23384;SDS011;11865;45.394;10.978;2023-07-31T06:32:58;6.25;;;4.35;;
23384;SDS011;11865;45.394;10.978;2023-07-31T06:35:25;5.32;;;4.18;;
23384;SDS011;11865;45.394;10.978;2023-07-31T06:37:53;6.57;;;4.43;;
23384;SDS011;11865;45.394;10.978;2023-07-31T06:40:21;6.68;;;4.63;;
23384;SDS011;11865;45.394;10.978;2023-07-31T06:42:49;4.45;;;3.75;;
23384;SDS011;11865;45.394;10.978;2023-07-31T06:45:17;7.57;;;4.07;;
23384;SDS011;11865;45.394;10.978;2023-07-31T06:47:44;5.90;;;3.72;;
23384;SDS011;11865;45.394;10.978;2023-07-31T06:50:12;4.13;;;3.55;;
23384;SDS011;11865;45.394;10.978;2023-07-31T06:52:39;6.65;;;3.50;;
23384;SDS011;11865;45.394;10.978;2023-07-31T06:55:17;9.85;;;3.45;;
23384;SDS011;11865;45.394;10.978;2023-07-31T06:57:49;6.65;;;4.30;;
23384;SDS011;11865;45.394;10.978;2023-07-31T07:00:18;6.25;;;3.53;;
23384;SDS011;11865;45.394;10.978;2023-07-31T07:02:47;11.32;;;4.28;;
23384;SDS011;11865;45.394;10.978;2023-07-31T07:05:16;5.90;;;3.22;;
23384;SDS011;11865;45.394;10.978;2023-07-31T07:07:44;3.65;;;3.00;;
23384;SDS011;11865;45.394;10.978;2023-07-31T07:10:12;5.30;;;2.83;;
23384;SDS011;11865;45.394;10.978;2023-07-31T07:12:40;6.25;;;3.20;;
23384;SDS011;11865;45.394;10.978;2023-07-31T07:15:07;7.43;;;3.65;;
23384;SDS011;11865;45.394;10.978;2023-07-31T07:17:35;6.88;;;3.85;;
23384;SDS011;11865;45.394;10.978;2023-07-31T07:20:04;8.10;;;3.88;;
23384;SDS011;11865;45.394;10.978;2023-07-31T07:22:31;6.47;;;3.90;;
23384;SDS011;11865;45.394;10.978;2023-07-31T07:24:59;3.70;;;3.30;;
23384;SDS011;11865;45.394;10.978;2023-07-31T07:27:27;9.90;;;3.92;;
23384;SDS011;11865;45.394;10.978;2023-07-31T07:29:54;7.25;;;4.03;;
23384;SDS011;11865;45.394;10.978;2023-07-31T07:32:22;8.18;;;3.92;;
23384;SDS011;11865;45.394;10.978;2023-07-31T07:34:49;9.90;;;4.35;;
23384;SDS011;11865;45.394;10.978;2023-07-31T07:37:17;11.60;;;3.88;;
23384;SDS011;11865;45.394;10.978;2023-07-31T07:39:44;5.88;;;3.92;;
23384;SDS011;11865;45.394;10.978;2023-07-31T07:42:12;6.30;;;3.90;;
23384;SDS011;11865;45.394;10.978;2023-07-31T07:44:39;5.93;;;3.95;;
23384;SDS011;11865;45.394;10.978;2023-07-31T07:47:07;6.53;;;4.30;;
23384;SDS011;11865;45.394;10.978;2023-07-31T07:49:34;9.05;;;5.15;;
23384;SDS011;11865;45.394;10.978;2023-07-31T07:52:02;11.93;;;4.75;;
23384;SDS011;11865;45.394;10.978;2023-07-31T07:54:31;6.85;;;4.32;;
23384;SDS011;11865;45.394;10.978;2023-07-31T07:56:59;6.22;;;3.97;;
23384;SDS011;11865;45.394;10.978;2023-07-31T07:59:26;5.13;;;3.72;;
23384;SDS011;11865;45.394;10.978;2023-07-31T08:01:54;5.50;;;3.63;;
23384;SDS011;11865;45.394;10.978;2023-07-31T08:04:21;5.32;;;3.78;;
23384;SDS011;11865;45.394;10.978;2023-07-31T08:06:49;4.78;;;3.88;;
23384;SDS011;11865;45.394;10.978;2023-07-31T08:09:16;5.38;;;3.92;;
23384;SDS011;11865;45.394;10.978;2023-07-31T08:11:44;9.85;;;4.65;;
23384;SDS011;11865;45.394;10.978;2023-07-31T08:14:11;7.20;;;3.60;;
23384;SDS011;11865;45.394;10.978;2023-07-31T08:16:39;5.55;;;3.65;;
23384;SDS011;11865;45.394;10.978;2023-07-31T08:19:07;5.45;;;3.97;;
23384;SDS011;11865;45.394;10.978;2023-07-31T08:21:35;6.68;;;3.92;;
23384;SDS011;11865;45.394;10.978;2023-07-31T08:24:02;5.57;;;3.35;;
23384;SDS011;11865;45.394;10.978;2023-07-31T08:26:30;4.13;;;3.10;;
23384;SDS011;11865;45.394;10.978;2023-07-31T08:28:58;7.07;;;3.33;;
23384;SDS011;11865;45.394;10.978;2023-07-31T08:31:25;5.18;;;3.00;;
23384;SDS011;11865;45.394;10.978;2023-07-31T08:33:53;3.65;;;2.10;;
23384;SDS011;11865;45.394;10.978;2023-07-31T08:36:21;3.28;;;2.88;;
23384;SDS011;11865;45.394;10.978;2023-07-31T08:38:49;3.67;;;2.47;;
23384;SDS011;11865;45.394;10.978;2023-07-31T08:41:17;10.43;;;3.60;;
23384;SDS011;11865;45.394;10.978;2023-07-31T08:43:48;3.45;;;2.35;;
23384;SDS011;11865;45.394;10.978;2023-07-31T08:46:17;3.47;;;2.03;;
23384;SDS011;11865;45.394;10.978;2023-07-31T08:48:45;2.42;;;2.00;;
23384;SDS011;11865;45.394;10.978;2023-07-31T08:51:14;2.35;;;1.80;;
23384;SDS011;11865;45.394;10.978;2023-07-31T08:53:42;3.40;;;2.03;;
23384;SDS011;11865;45.394;10.978;2023-07-31T08:56:10;3.45;;;2.28;;
23384;SDS011;11865;45.394;10.978;2023-07-31T08:58:39;11.10;;;3.75;;
23384;SDS011;11865;45.394;10.978;2023-07-31T09:01:07;3.15;;;2.15;;
23384;SDS011;11865;45.394;10.978;2023-07-31T09:03:35;10.15;;;2.17;;
23384;SDS011;11865;45.394;10.978;2023-07-31T09:06:04;3.17;;;1.88;;
23384;SDS011;11865;45.394;10.978;2023-07-31T09:08:33;3.13;;;1.83;;
23384;SDS011;11865;45.394;10.978;2023-07-31T09:11:01;5.60;;;2.13;;
23384;SDS011;11865;45.394;10.978;2023-07-31T09:13:32;9.27;;;2.37;;
23384;SDS011;11865;45.394;10.978;2023-07-31T09:16:00;3.45;;;2.08;;
23384;SDS011;11865;45.394;10.978;2023-07-31T09:18:27;2.03;;;1.65;;
23384;SDS011;11865;45.394;10.978;2023-07-31T09:23:43;5.25;;;2.03;;
23384;SDS011;11865;45.394;10.978;2023-07-31T09:26:34;2.55;;;1.63;;
23384;SDS011;11865;45.394;10.978;2023-07-31T09:29:04;2.40;;;1.88;;
23384;SDS011;11865;45.394;10.978;2023-07-31T09:31:39;2.90;;;1.90;;
23384;SDS011;11865;45.394;10.978;2023-07-31T09:34:10;3.45;;;1.70;;
23384;SDS011;11865;45.394;10.978;2023-07-31T09:36:42;3.08;;;1.95;;
23384;SDS011;11865;45.394;10.978;2023-07-31T09:39:12;6.10;;;2.00;;
23384;SDS011;11865;45.394;10.978;2023-07-31T09:41:42;2.40;;;1.75;;
23384;SDS011;11865;45.394;10.978;2023-07-31T09:44:14;2.80;;;2.25;;
23384;SDS011;11865;45.394;10.978;2023-07-31T09:46:42;4.40;;;2.65;;
23384;SDS011;11865;45.394;10.978;2023-07-31T09:49:10;25.60;;;9.93;;
23384;SDS011;11865;45.394;10.978;2023-07-31T09:51:40;2.63;;;2.15;;
23384;SDS011;11865;45.394;10.978;2023-07-31T09:54:09;7.82;;;2.10;;
23384;SDS011;11865;45.394;10.978;2023-07-31T09:56:42;4.60;;;2.22;;
23384;SDS011;11865;45.394;10.978;2023-07-31T09:59:14;4.60;;;2.65;;
23384;SDS011;11865;45.394;10.978;2023-07-31T10:01:45;2.20;;;2.00;;
23384;SDS011;11865;45.394;10.978;2023-07-31T10:04:13;4.93;;;2.33;;
23384;SDS011;11865;45.394;10.978;2023-07-31T10:06:42;3.70;;;2.10;;
23384;SDS011;11865;45.394;10.978;2023-07-31T10:09:11;2.35;;;1.92;;
23384;SDS011;11865;45.394;10.978;2023-07-31T10:11:47;3.35;;;2.00;;
23384;SDS011;11865;45.394;10.978;2023-07-31T10:14:26;3.08;;;2.03;;
23384;SDS011;11865;45.394;10.978;2023-07-31T10:16:56;3.85;;;1.85;;
23384;SDS011;11865;45.394;10.978;2023-07-31T10:19:25;5.50;;;2.10;;
23384;SDS011;11865;45.394;10.978;2023-07-31T10:21:53;2.72;;;1.98;;
23384;SDS011;11865;45.394;10.978;2023-07-31T10:24:24;2.30;;;1.95;;
23384;SDS011;11865;45.394;10.978;2023-07-31T10:26:52;4.55;;;2.20;;
23384;SDS011;11865;45.394;10.978;2023-07-31T10:29:22;2.35;;;1.95;;
23384;SDS011;11865;45.394;10.978;2023-07-31T10:31:51;2.53;;;2.10;;
23384;SDS011;11865;45.394;10.978;2023-07-31T10:34:19;7.22;;;2.63;;
23384;SDS011;11865;45.394;10.978;2023-07-31T10:36:46;7.07;;;2.10;;
23384;SDS011;11865;45.394;10.978;2023-07-31T10:42:13;7.70;;;2.30;;
23384;SDS011;11865;45.394;10.978;2023-07-31T10:44:46;3.53;;;1.90;;
23384;SDS011;11865;45.394;10.978;2023-07-31T10:47:14;5.78;;;2.13;;
23384;SDS011;11865;45.394;10.978;2023-07-31T10:49:46;2.85;;;2.30;;
23384;SDS011;11865;45.394;10.978;2023-07-31T10:52:14;7.10;;;2.35;;
23384;SDS011;11865;45.394;10.978;2023-07-31T10:57:49;3.22;;;2.10;;
23384;SDS011;11865;45.394;10.978;2023-07-31T11:02:59;3.10;;;2.22;;
23384;SDS011;11865;45.394;10.978;2023-07-31T11:05:43;4.18;;;2.15;;
23384;SDS011;11865;45.394;10.978;2023-07-31T11:11:12;2.72;;;2.20;;
23384;SDS011;11865;45.394;10.978;2023-07-31T11:13:45;3.80;;;2.33;;
23384;SDS011;11865;45.394;10.978;2023-07-31T11:16:20;7.35;;;2.50;;
23384;SDS011;11865;45.394;10.978;2023-07-31T11:18:49;2.97;;;1.95;;
23384;SDS011;11865;45.394;10.978;2023-07-31T11:21:19;3.45;;;1.90;;
23384;SDS011;11865;45.394;10.978;2023-07-31T11:23:49;2.97;;;2.08;;
23384;SDS011;11865;45.394;10.978;2023-07-31T11:26:25;1.90;;;1.80;;
23384;SDS011;11865;45.394;10.978;2023-07-31T11:28:54;1.65;;;1.55;;
23384;SDS011;11865;45.394;10.978;2023-07-31T11:31:22;2.90;;;2.00;;
23384;SDS011;11865;45.394;10.978;2023-07-31T11:33:49;2.88;;;1.80;;
23384;SDS011;11865;45.394;10.978;2023-07-31T11:36:18;3.78;;;1.90;;
23384;SDS011;11865;45.394;10.978;2023-07-31T11:38:46;2.28;;;1.80;;
23384;SDS011;11865;45.394;10.978;2023-07-31T11:41:15;2.60;;;1.92;;
23384;SDS011;11865;45.394;10.978;2023-07-31T11:43:45;3.13;;;1.90;;
23384;SDS011;11865;45.394;10.978;2023-07-31T11:46:14;2.65;;;1.70;;
23384;SDS011;11865;45.394;10.978;2023-07-31T11:48:42;2.05;;;1.73;;
23384;SDS011;11865;45.394;10.978;2023-07-31T11:51:10;5.78;;;2.08;;
23384;SDS011;11865;45.394;10.978;2023-07-31T11:56:08;4.30;;;2.00;;
23384;SDS011;11865;45.394;10.978;2023-07-31T11:58:38;2.10;;;1.90;;
23384;SDS011;11865;45.394;10.978;2023-07-31T12:01:07;2.70;;;1.75;;
23384;SDS011;11865;45.394;10.978;2023-07-31T12:03:36;4.32;;;1.83;;
23384;SDS011;11865;45.394;10.978;2023-07-31T12:06:04;3.40;;;2.03;;
23384;SDS011;11865;45.394;10.978;2023-07-31T12:08:31;3.95;;;2.00;;
23384;SDS011;11865;45.394;10.978;2023-07-31T12:11:02;5.22;;;2.17;;
23384;SDS011;11865;45.394;10.978;2023-07-31T12:13:32;3.72;;;1.95;;
23384;SDS011;11865;45.394;10.978;2023-07-31T12:16:01;2.90;;;1.98;;
23384;SDS011;11865;45.394;10.978;2023-07-31T12:18:33;6.22;;;2.65;;
23384;SDS011;11865;45.394;10.978;2023-07-31T12:21:05;3.13;;;2.10;;
23384;SDS011;11865;45.394;10.978;2023-07-31T12:23:34;1.98;;;1.63;;
23384;SDS011;11865;45.394;10.978;2023-07-31T12:26:09;2.53;;;1.83;;
23384;SDS011;11865;45.394;10.978;2023-07-31T12:28:42;3.80;;;2.13;;
23384;SDS011;11865;45.394;10.978;2023-07-31T12:31:22;2.92;;;2.03;;
23384;SDS011;11865;45.394;10.978;2023-07-31T12:33:50;8.75;;;2.40;;
23384;SDS011;11865;45.394;10.978;2023-07-31T12:36:20;2.17;;;1.65;;
23384;SDS011;11865;45.394;10.978;2023-07-31T12:38:51;5.38;;;2.60;;
23384;SDS011;11865;45.394;10.978;2023-07-31T12:41:19;3.97;;;2.20;;
23384;SDS011;11865;45.394;10.978;2023-07-31T12:43:46;2.08;;;1.60;;
23384;SDS011;11865;45.394;10.978;2023-07-31T12:46:14;3.95;;;2.15;;
23384;SDS011;11865;45.394;10.978;2023-07-31T12:48:43;4.50;;;1.88;;
23384;SDS011;11865;45.394;10.978;2023-07-31T12:51:10;1.90;;;1.50;;
23384;SDS011;11865;45.394;10.978;2023-07-31T12:53:38;2.50;;;2.10;;
23384;SDS011;11865;45.394;10.978;2023-07-31T12:56:05;2.55;;;2.00;;
23384;SDS011;11865;45.394;10.978;2023-07-31T12:58:33;2.30;;;1.80;;
23384;SDS011;11865;45.394;10.978;2023-07-31T13:01:00;4.03;;;1.98;;
23384;SDS011;11865;45.394;10.978;2023-07-31T13:03:29;4.55;;;2.35;;
23384;SDS011;11865;45.394;10.978;2023-07-31T13:05:57;3.38;;;1.92;;
23384;SDS011;11865;45.394;10.978;2023-07-31T13:08:24;2.92;;;1.95;;
23384;SDS011;11865;45.394;10.978;2023-07-31T13:10:52;3.30;;;2.15;;
23384;SDS011;11865;45.394;10.978;2023-07-31T13:13:20;2.10;;;1.90;;
23384;SDS011;11865;45.394;10.978;2023-07-31T13:15:48;2.80;;;1.88;;
23384;SDS011;11865;45.394;10.978;2023-07-31T13:18:15;2.58;;;1.55;;
23384;SDS011;11865;45.394;10.978;2023-07-31T13:20:43;4.70;;;1.92;;
23384;SDS011;11865;45.394;10.978;2023-07-31T13:23:10;3.78;;;1.77;;
23384;SDS011;11865;45.394;10.978;2023-07-31T13:25:38;8.95;;;2.20;;
23384;SDS011;11865;45.394;10.978;2023-07-31T13:28:06;3.05;;;1.75;;
23384;SDS011;11865;45.394;10.978;2023-07-31T13:30:33;2.63;;;1.77;;
23384;SDS011;11865;45.394;10.978;2023-07-31T13:33:00;4.28;;;2.00;;
23384;SDS011;11865;45.394;10.978;2023-07-31T13:35:28;4.40;;;2.22;;
23384;SDS011;11865;45.394;10.978;2023-07-31T13:37:58;2.88;;;1.80;;
23384;SDS011;11865;45.394;10.978;2023-07-31T13:40:25;1.95;;;1.73;;
23384;SDS011;11865;45.394;10.978;2023-07-31T13:42:53;4.13;;;1.83;;
23384;SDS011;11865;45.394;10.978;2023-07-31T13:45:21;2.03;;;1.70;;
23384;SDS011;11865;45.394;10.978;2023-07-31T13:47:50;3.33;;;1.55;;
23384;SDS011;11865;45.394;10.978;2023-07-31T13:50:18;3.90;;;1.80;;
23384;SDS011;11865;45.394;10.978;2023-07-31T13:52:48;3.47;;;1.90;;
23384;SDS011;11865;45.394;10.978;2023-07-31T13:55:16;4.75;;;2.10;;
23384;SDS011;11865;45.394;10.978;2023-07-31T13:57:43;3.38;;;2.05;;
23384;SDS011;11865;45.394;10.978;2023-07-31T14:00:11;6.78;;;2.22;;
23384;SDS011;11865;45.394;10.978;2023-07-31T14:02:39;3.60;;;2.00;;
23384;SDS011;11865;45.394;10.978;2023-07-31T14:05:07;2.85;;;2.13;;
23384;SDS011;11865;45.394;10.978;2023-07-31T14:07:36;3.47;;;2.03;;
23384;SDS011;11865;45.394;10.978;2023-07-31T14:10:04;2.78;;;2.00;;
23384;SDS011;11865;45.394;10.978;2023-07-31T14:12:32;2.78;;;1.98;;
23384;SDS011;11865;45.394;10.978;2023-07-31T14:15:09;6.55;;;2.38;;
23384;SDS011;11865;45.394;10.978;2023-07-31T14:17:37;3.17;;;1.98;;
23384;SDS011;11865;45.394;10.978;2023-07-31T14:20:06;3.92;;;1.98;;
23384;SDS011;11865;45.394;10.978;2023-07-31T14:22:34;10.55;;;4.53;;
23384;SDS011;11865;45.394;10.978;2023-07-31T14:25:02;6.50;;;3.10;;
23384;SDS011;11865;45.394;10.978;2023-07-31T14:27:29;3.30;;;2.05;;
23384;SDS011;11865;45.394;10.978;2023-07-31T14:29:57;3.97;;;2.35;;
23384;SDS011;11865;45.394;10.978;2023-07-31T14:32:25;2.90;;;2.00;;
23384;SDS011;11865;45.394;10.978;2023-07-31T14:34:53;3.60;;;2.20;;
23384;SDS011;11865;45.394;10.978;2023-07-31T14:37:21;3.28;;;2.00;;
23384;SDS011;11865;45.394;10.978;2023-07-31T14:39:49;3.53;;;1.95;;
23384;SDS011;11865;45.394;10.978;2023-07-31T14:42:17;3.00;;;2.33;;
23384;SDS011;11865;45.394;10.978;2023-07-31T14:44:46;3.53;;;1.85;;
23384;SDS011;11865;45.394;10.978;2023-07-31T14:47:14;2.58;;;1.80;;
23384;SDS011;11865;45.394;10.978;2023-07-31T14:49:42;3.10;;;2.05;;
23384;SDS011;11865;45.394;10.978;2023-07-31T14:52:09;2.30;;;2.08;;
23384;SDS011;11865;45.394;10.978;2023-07-31T14:54:37;4.57;;;2.60;;
23384;SDS011;11865;45.394;10.978;2023-07-31T14:57:04;2.22;;;2.00;;
23384;SDS011;11865;45.394;10.978;2023-07-31T14:59:32;3.83;;;2.60;;
23384;SDS011;11865;45.394;10.978;2023-07-31T15:02:00;4.97;;;2.10;;
23384;SDS011;11865;45.394;10.978;2023-07-31T15:04:27;2.65;;;2.17;;